<?xml version="1.0" encoding="UTF-8"?>
<gpx version="1.0" creator="Trackator" xmlns:xsi="http://www.w3.org/2001/XMLSchema-instance" xmlns="http://www.topografix.com/GPX/1/0" xmlns:topografix="http://www.topografix.com/GPX/Private/TopoGrafix/0/1" xsi:schemaLocation="http://www.topografix.com/GPX/1/0 http://www.topografix.com/GPX/1/0/gpx.xsd http://www.topografix.com/GPX/Private/TopoGrafix/0/1 http://www.topografix.com/GPX/Private/TopoGrafix/0/1/topografix.xsd">
<metadata>
<link href="http://www.trackator.com">
<text>Trackator</text>
</link>
</metadata>
<time>2015-06-25T13:01:19Z</time>
<trk>
<name>Track: </name>
<desc>4x4-SUV</desc>
<trkseg>
<trkpt lat="53.3473630" lon="18.4201453">
<ele>109</ele>
<time>2015-06-25T13:01:19Z</time>
</trkpt>
<trkpt lat="53.3473653" lon="18.4201427">
<ele>109</ele>
<time>2015-06-25T13:01:21Z</time>
</trkpt>
<trkpt lat="53.3473671" lon="18.4201353">
<ele>110</ele>
<time>2015-06-25T13:01:25Z</time>
</trkpt>
<trkpt lat="53.3473673" lon="18.4201344">
<ele>110</ele>
<time>2015-06-25T13:01:27Z</time>
</trkpt>
<trkpt lat="53.3473674" lon="18.4201340">
<ele>110</ele>
<time>2015-06-25T13:01:29Z</time>
</trkpt>
<trkpt lat="53.3473674" lon="18.4201340">
<ele>110</ele>
<time>2015-06-25T13:01:31Z</time>
</trkpt>
<trkpt lat="53.3473674" lon="18.4201339">
<ele>110</ele>
<time>2015-06-25T13:01:33Z</time>
</trkpt>
<trkpt lat="53.3473674" lon="18.4201338">
<ele>110</ele>
<time>2015-06-25T13:01:35Z</time>
</trkpt>
<trkpt lat="53.3473673" lon="18.4201337">
<ele>110</ele>
<time>2015-06-25T13:01:37Z</time>
</trkpt>
<trkpt lat="53.3473673" lon="18.4201336">
<ele>110</ele>
<time>2015-06-25T13:01:39Z</time>
</trkpt>
<trkpt lat="53.3473672" lon="18.4201336">
<ele>110</ele>
<time>2015-06-25T13:01:41Z</time>
</trkpt>
<trkpt lat="53.3473673" lon="18.4201338">
<ele>110</ele>
<time>2015-06-25T13:01:43Z</time>
</trkpt>
<trkpt lat="53.3473673" lon="18.4201338">
<ele>110</ele>
<time>2015-06-25T13:01:45Z</time>
</trkpt>
<trkpt lat="53.3473674" lon="18.4201338">
<ele>110</ele>
<time>2015-06-25T13:01:47Z</time>
</trkpt>
<trkpt lat="53.3473674" lon="18.4201339">
<ele>110</ele>
<time>2015-06-25T13:01:49Z</time>
</trkpt>
<trkpt lat="53.3473672" lon="18.4201338">
<ele>110</ele>
<time>2015-06-25T13:01:51Z</time>
</trkpt>
<trkpt lat="53.3473672" lon="18.4201338">
<ele>110</ele>
<time>2015-06-25T13:01:53Z</time>
</trkpt>
<trkpt lat="53.3473672" lon="18.4201338">
<ele>110</ele>
<time>2015-06-25T13:01:55Z</time>
</trkpt>
<trkpt lat="53.3473671" lon="18.4201337">
<ele>110</ele>
<time>2015-06-25T13:01:57Z</time>
</trkpt>
<trkpt lat="53.3473670" lon="18.4201335">
<ele>110</ele>
<time>2015-06-25T13:01:59Z</time>
</trkpt>
<trkpt lat="53.347367" lon="18.4201334">
<ele>110</ele>
<time>2015-06-25T13:02:01Z</time>
</trkpt>
<trkpt lat="53.3473669" lon="18.4201334">
<ele>110</ele>
<time>2015-06-25T13:02:05Z</time>
</trkpt>
<trkpt lat="53.3473668" lon="18.4201333">
<ele>110</ele>
<time>2015-06-25T13:02:07Z</time>
</trkpt>
<trkpt lat="53.3473667" lon="18.4201332">
<ele>110</ele>
<time>2015-06-25T13:02:09Z</time>
</trkpt>
<trkpt lat="53.3473666" lon="18.4201332">
<ele>110</ele>
<time>2015-06-25T13:02:11Z</time>
</trkpt>
<trkpt lat="53.3473666" lon="18.4201332">
<ele>110</ele>
<time>2015-06-25T13:02:13Z</time>
</trkpt>
<trkpt lat="53.3473665" lon="18.4201332">
<ele>110</ele>
<time>2015-06-25T13:02:15Z</time>
</trkpt>
<trkpt lat="53.3473665" lon="18.4201331">
<ele>110</ele>
<time>2015-06-25T13:02:17Z</time>
</trkpt>
<trkpt lat="53.3473665" lon="18.4201331">
<ele>110</ele>
<time>2015-06-25T13:02:19Z</time>
</trkpt>
<trkpt lat="53.3473665" lon="18.4201331">
<ele>110</ele>
<time>2015-06-25T13:02:21Z</time>
</trkpt>
<trkpt lat="53.3473663" lon="18.4201330">
<ele>110</ele>
<time>2015-06-25T13:02:23Z</time>
</trkpt>
<trkpt lat="53.3473662" lon="18.4201329">
<ele>110</ele>
<time>2015-06-25T13:02:25Z</time>
</trkpt>
<trkpt lat="53.3473661" lon="18.4201328">
<ele>110</ele>
<time>2015-06-25T13:02:27Z</time>
</trkpt>
<trkpt lat="53.3473659" lon="18.4201327">
<ele>110</ele>
<time>2015-06-25T13:02:31Z</time>
</trkpt>
<trkpt lat="53.3473658" lon="18.4201327">
<ele>110</ele>
<time>2015-06-25T13:02:33Z</time>
</trkpt>
<trkpt lat="53.3473658" lon="18.4201327">
<ele>110</ele>
<time>2015-06-25T13:02:35Z</time>
</trkpt>
<trkpt lat="53.3473658" lon="18.4201327">
<ele>110</ele>
<time>2015-06-25T13:02:37Z</time>
</trkpt>
<trkpt lat="53.3473658" lon="18.4201328">
<ele>110</ele>
<time>2015-06-25T13:02:39Z</time>
</trkpt>
<trkpt lat="53.3473658" lon="18.4201328">
<ele>110</ele>
<time>2015-06-25T13:02:41Z</time>
</trkpt>
<trkpt lat="53.3473658" lon="18.4201328">
<ele>110</ele>
<time>2015-06-25T13:02:43Z</time>
</trkpt>
<trkpt lat="53.3473658" lon="18.4201328">
<ele>110</ele>
<time>2015-06-25T13:02:45Z</time>
</trkpt>
<trkpt lat="53.3473657" lon="18.4201327">
<ele>110</ele>
<time>2015-06-25T13:02:47Z</time>
</trkpt>
<trkpt lat="53.3473657" lon="18.4201327">
<ele>110</ele>
<time>2015-06-25T13:02:49Z</time>
</trkpt>
<trkpt lat="53.3473657" lon="18.4201327">
<ele>110</ele>
<time>2015-06-25T13:02:51Z</time>
</trkpt>
<trkpt lat="53.3473657" lon="18.4201327">
<ele>110</ele>
<time>2015-06-25T13:02:53Z</time>
</trkpt>
<trkpt lat="53.3473657" lon="18.4201327">
<ele>110</ele>
<time>2015-06-25T13:02:55Z</time>
</trkpt>
<trkpt lat="53.3473656" lon="18.4201327">
<ele>110</ele>
<time>2015-06-25T13:02:57Z</time>
</trkpt>
<trkpt lat="53.3473656" lon="18.4201327">
<ele>110</ele>
<time>2015-06-25T13:02:59Z</time>
</trkpt>
<trkpt lat="53.3473656" lon="18.4201327">
<ele>110</ele>
<time>2015-06-25T13:03:01Z</time>
</trkpt>
<trkpt lat="53.3473656" lon="18.4201327">
<ele>110</ele>
<time>2015-06-25T13:03:03Z</time>
</trkpt>
<trkpt lat="53.3473655" lon="18.4201327">
<ele>110</ele>
<time>2015-06-25T13:03:05Z</time>
</trkpt>
<trkpt lat="53.3473656" lon="18.4201327">
<ele>110</ele>
<time>2015-06-25T13:03:07Z</time>
</trkpt>
<trkpt lat="53.3473656" lon="18.4201328">
<ele>110</ele>
<time>2015-06-25T13:03:09Z</time>
</trkpt>
<trkpt lat="53.3473656" lon="18.4201328">
<ele>110</ele>
<time>2015-06-25T13:03:11Z</time>
</trkpt>
<trkpt lat="53.3473657" lon="18.4201327">
<ele>110</ele>
<time>2015-06-25T13:03:13Z</time>
</trkpt>
<trkpt lat="53.3473657" lon="18.4201327">
<ele>110</ele>
<time>2015-06-25T13:03:15Z</time>
</trkpt>
<trkpt lat="53.3473657" lon="18.4201326">
<ele>110</ele>
<time>2015-06-25T13:03:17Z</time>
</trkpt>
<trkpt lat="53.3473656" lon="18.4201326">
<ele>110</ele>
<time>2015-06-25T13:03:19Z</time>
</trkpt>
<trkpt lat="53.3473655" lon="18.4201326">
<ele>110</ele>
<time>2015-06-25T13:03:21Z</time>
</trkpt>
<trkpt lat="53.3473654" lon="18.4201325">
<ele>110</ele>
<time>2015-06-25T13:03:25Z</time>
</trkpt>
<trkpt lat="53.3473654" lon="18.4201325">
<ele>110</ele>
<time>2015-06-25T13:03:27Z</time>
</trkpt>
<trkpt lat="53.3473654" lon="18.4201326">
<ele>110</ele>
<time>2015-06-25T13:03:29Z</time>
</trkpt>
<trkpt lat="53.3473654" lon="18.4201327">
<ele>110</ele>
<time>2015-06-25T13:03:31Z</time>
</trkpt>
<trkpt lat="53.3473654" lon="18.4201328">
<ele>110</ele>
<time>2015-06-25T13:03:33Z</time>
</trkpt>
<trkpt lat="53.3473654" lon="18.4201328">
<ele>110</ele>
<time>2015-06-25T13:03:35Z</time>
</trkpt>
<trkpt lat="53.3473654" lon="18.4201327">
<ele>110</ele>
<time>2015-06-25T13:03:37Z</time>
</trkpt>
<trkpt lat="53.3473654" lon="18.4201328">
<ele>110</ele>
<time>2015-06-25T13:03:39Z</time>
</trkpt>
<trkpt lat="53.3473653" lon="18.4201327">
<ele>110</ele>
<time>2015-06-25T13:03:41Z</time>
</trkpt>
<trkpt lat="53.3473651" lon="18.4201326">
<ele>110</ele>
<time>2015-06-25T13:03:45Z</time>
</trkpt>
<trkpt lat="53.3473650" lon="18.4201326">
<ele>110</ele>
<time>2015-06-25T13:03:47Z</time>
</trkpt>
<trkpt lat="53.3473649" lon="18.4201326">
<ele>110</ele>
<time>2015-06-25T13:03:49Z</time>
</trkpt>
<trkpt lat="53.3473649" lon="18.4201326">
<ele>110</ele>
<time>2015-06-25T13:03:51Z</time>
</trkpt>
<trkpt lat="53.3473649" lon="18.4201327">
<ele>110</ele>
<time>2015-06-25T13:03:53Z</time>
</trkpt>
<trkpt lat="53.3473649" lon="18.4201327">
<ele>110</ele>
<time>2015-06-25T13:03:55Z</time>
</trkpt>
<trkpt lat="53.3473648" lon="18.4201327">
<ele>110</ele>
<time>2015-06-25T13:03:57Z</time>
</trkpt>
<trkpt lat="53.3473648" lon="18.4201328">
<ele>110</ele>
<time>2015-06-25T13:03:59Z</time>
</trkpt>
<trkpt lat="53.3473649" lon="18.4201329">
<ele>110</ele>
<time>2015-06-25T13:04:01Z</time>
</trkpt>
<trkpt lat="53.3473649" lon="18.4201329">
<ele>110</ele>
<time>2015-06-25T13:04:03Z</time>
</trkpt>
<trkpt lat="53.3473648" lon="18.4201328">
<ele>110</ele>
<time>2015-06-25T13:04:05Z</time>
</trkpt>
<trkpt lat="53.3473648" lon="18.4201327">
<ele>110</ele>
<time>2015-06-25T13:04:07Z</time>
</trkpt>
<trkpt lat="53.3473647" lon="18.4201327">
<ele>110</ele>
<time>2015-06-25T13:04:09Z</time>
</trkpt>
<trkpt lat="53.3473648" lon="18.4201327">
<ele>110</ele>
<time>2015-06-25T13:04:11Z</time>
</trkpt>
<trkpt lat="53.3473648" lon="18.4201327">
<ele>110</ele>
<time>2015-06-25T13:04:13Z</time>
</trkpt>
<trkpt lat="53.3473649" lon="18.4201327">
<ele>110</ele>
<time>2015-06-25T13:04:15Z</time>
</trkpt>
<trkpt lat="53.347365" lon="18.4201327">
<ele>110</ele>
<time>2015-06-25T13:04:17Z</time>
</trkpt>
<trkpt lat="53.3473649" lon="18.4201327">
<ele>110</ele>
<time>2015-06-25T13:04:19Z</time>
</trkpt>
<trkpt lat="53.3473649" lon="18.4201326">
<ele>110</ele>
<time>2015-06-25T13:04:21Z</time>
</trkpt>
<trkpt lat="53.3473649" lon="18.4201326">
<ele>110</ele>
<time>2015-06-25T13:04:23Z</time>
</trkpt>
<trkpt lat="53.3473650" lon="18.4201326">
<ele>110</ele>
<time>2015-06-25T13:04:25Z</time>
</trkpt>
<trkpt lat="53.347365" lon="18.4201327">
<ele>110</ele>
<time>2015-06-25T13:04:27Z</time>
</trkpt>
<trkpt lat="53.3473649" lon="18.4201327">
<ele>110</ele>
<time>2015-06-25T13:04:29Z</time>
</trkpt>
<trkpt lat="53.3473648" lon="18.4201327">
<ele>110</ele>
<time>2015-06-25T13:04:31Z</time>
</trkpt>
<trkpt lat="53.3473647" lon="18.4201327">
<ele>110</ele>
<time>2015-06-25T13:04:33Z</time>
</trkpt>
<trkpt lat="53.3473646" lon="18.4201327">
<ele>110</ele>
<time>2015-06-25T13:04:35Z</time>
</trkpt>
<trkpt lat="53.3473644" lon="18.4201326">
<ele>110</ele>
<time>2015-06-25T13:04:37Z</time>
</trkpt>
<trkpt lat="53.3473643" lon="18.4201326">
<ele>110</ele>
<time>2015-06-25T13:04:39Z</time>
</trkpt>
<trkpt lat="53.3473643" lon="18.4201326">
<ele>110</ele>
<time>2015-06-25T13:04:41Z</time>
</trkpt>
<trkpt lat="53.3473643" lon="18.4201326">
<ele>110</ele>
<time>2015-06-25T13:04:43Z</time>
</trkpt>
<trkpt lat="53.3473642" lon="18.4201325">
<ele>110</ele>
<time>2015-06-25T13:04:45Z</time>
</trkpt>
<trkpt lat="53.3473641" lon="18.4201324">
<ele>110</ele>
<time>2015-06-25T13:04:47Z</time>
</trkpt>
<trkpt lat="53.3473640" lon="18.4201324">
<ele>110</ele>
<time>2015-06-25T13:04:49Z</time>
</trkpt>
<trkpt lat="53.3473640" lon="18.4201323">
<ele>110</ele>
<time>2015-06-25T13:04:51Z</time>
</trkpt>
<trkpt lat="53.3473640" lon="18.4201323">
<ele>110</ele>
<time>2015-06-25T13:04:53Z</time>
</trkpt>
<trkpt lat="53.3473640" lon="18.4201323">
<ele>110</ele>
<time>2015-06-25T13:04:55Z</time>
</trkpt>
<trkpt lat="53.3473639" lon="18.4201323">
<ele>110</ele>
<time>2015-06-25T13:04:57Z</time>
</trkpt>
<trkpt lat="53.3473639" lon="18.4201323">
<ele>110</ele>
<time>2015-06-25T13:04:59Z</time>
</trkpt>
<trkpt lat="53.3473638" lon="18.4201323">
<ele>110</ele>
<time>2015-06-25T13:05:01Z</time>
</trkpt>
<trkpt lat="53.3473638" lon="18.4201322">
<ele>110</ele>
<time>2015-06-25T13:05:03Z</time>
</trkpt>
<trkpt lat="53.3473638" lon="18.4201321">
<ele>110</ele>
<time>2015-06-25T13:05:05Z</time>
</trkpt>
<trkpt lat="53.3473637" lon="18.4201321">
<ele>110</ele>
<time>2015-06-25T13:05:07Z</time>
</trkpt>
<trkpt lat="53.3473637" lon="18.4201320">
<ele>110</ele>
<time>2015-06-25T13:05:09Z</time>
</trkpt>
<trkpt lat="53.3473635" lon="18.4201320">
<ele>110</ele>
<time>2015-06-25T13:05:13Z</time>
</trkpt>
<trkpt lat="53.3473635" lon="18.4201320">
<ele>110</ele>
<time>2015-06-25T13:05:17Z</time>
</trkpt>
<trkpt lat="53.3473635" lon="18.4201320">
<ele>110</ele>
<time>2015-06-25T13:05:19Z</time>
</trkpt>
<trkpt lat="53.3473635" lon="18.4201320">
<ele>110</ele>
<time>2015-06-25T13:05:21Z</time>
</trkpt>
<trkpt lat="53.3473635" lon="18.4201320">
<ele>110</ele>
<time>2015-06-25T13:05:23Z</time>
</trkpt>
<trkpt lat="53.3473635" lon="18.4201320">
<ele>110</ele>
<time>2015-06-25T13:05:25Z</time>
</trkpt>
<trkpt lat="53.3473635" lon="18.4201320">
<ele>110</ele>
<time>2015-06-25T13:05:27Z</time>
</trkpt>
<trkpt lat="53.3473634" lon="18.4201320">
<ele>110</ele>
<time>2015-06-25T13:05:29Z</time>
</trkpt>
<trkpt lat="53.3473634" lon="18.420132">
<ele>110</ele>
<time>2015-06-25T13:05:31Z</time>
</trkpt>
<trkpt lat="53.3473632" lon="18.4201318">
<ele>110</ele>
<time>2015-06-25T13:05:35Z</time>
</trkpt>
<trkpt lat="53.3473632" lon="18.4201318">
<ele>110</ele>
<time>2015-06-25T13:05:37Z</time>
</trkpt>
<trkpt lat="53.3473631" lon="18.4201318">
<ele>110</ele>
<time>2015-06-25T13:05:39Z</time>
</trkpt>
<trkpt lat="53.3473631" lon="18.4201318">
<ele>110</ele>
<time>2015-06-25T13:05:41Z</time>
</trkpt>
<trkpt lat="53.3473630" lon="18.4201318">
<ele>110</ele>
<time>2015-06-25T13:05:43Z</time>
</trkpt>
<trkpt lat="53.3473630" lon="18.4201318">
<ele>110</ele>
<time>2015-06-25T13:05:45Z</time>
</trkpt>
<trkpt lat="53.3473630" lon="18.4201318">
<ele>110</ele>
<time>2015-06-25T13:05:47Z</time>
</trkpt>
<trkpt lat="53.3473630" lon="18.4201318">
<ele>110</ele>
<time>2015-06-25T13:05:49Z</time>
</trkpt>
<trkpt lat="53.347363" lon="18.4201318">
<ele>110</ele>
<time>2015-06-25T13:05:51Z</time>
</trkpt>
<trkpt lat="53.3473630" lon="18.4201319">
<ele>110</ele>
<time>2015-06-25T13:05:53Z</time>
</trkpt>
<trkpt lat="53.3473630" lon="18.4201319">
<ele>110</ele>
<time>2015-06-25T13:05:55Z</time>
</trkpt>
<trkpt lat="53.3473630" lon="18.4201319">
<ele>110</ele>
<time>2015-06-25T13:05:57Z</time>
</trkpt>
<trkpt lat="53.3473629" lon="18.4201318">
<ele>110</ele>
<time>2015-06-25T13:05:59Z</time>
</trkpt>
<trkpt lat="53.3473629" lon="18.4201318">
<ele>110</ele>
<time>2015-06-25T13:06:01Z</time>
</trkpt>
<trkpt lat="53.3473630" lon="18.4201317">
<ele>110</ele>
<time>2015-06-25T13:06:03Z</time>
</trkpt>
<trkpt lat="53.3473630" lon="18.4201317">
<ele>110</ele>
<time>2015-06-25T13:06:05Z</time>
</trkpt>
<trkpt lat="53.3473630" lon="18.4201317">
<ele>110</ele>
<time>2015-06-25T13:06:07Z</time>
</trkpt>
<trkpt lat="53.3473629" lon="18.4201317">
<ele>110</ele>
<time>2015-06-25T13:06:09Z</time>
</trkpt>
<trkpt lat="53.3473581" lon="18.4201359">
<ele>110</ele>
<time>2015-06-25T13:06:11Z</time>
</trkpt>
<trkpt lat="53.3473079" lon="18.4201737">
<ele>109</ele>
<time>2015-06-25T13:06:13Z</time>
</trkpt>
<trkpt lat="53.3472435" lon="18.4202535">
<ele>110</ele>
<time>2015-06-25T13:06:15Z</time>
</trkpt>
<trkpt lat="53.3471560" lon="18.4204836">
<ele>107</ele>
<time>2015-06-25T13:06:17Z</time>
</trkpt>
<trkpt lat="53.3471128" lon="18.4206407">
<ele>106</ele>
<time>2015-06-25T13:06:19Z</time>
</trkpt>
<trkpt lat="53.3471120" lon="18.4208458">
<ele>108</ele>
<time>2015-06-25T13:06:21Z</time>
</trkpt>
<trkpt lat="53.3470858" lon="18.4210266">
<ele>107</ele>
<time>2015-06-25T13:06:23Z</time>
</trkpt>
<trkpt lat="53.3471932" lon="18.4212291">
<ele>107</ele>
<time>2015-06-25T13:06:25Z</time>
</trkpt>
<trkpt lat="53.3472311" lon="18.4214280">
<ele>105</ele>
<time>2015-06-25T13:06:27Z</time>
</trkpt>
<trkpt lat="53.3472697" lon="18.4215759">
<ele>107</ele>
<time>2015-06-25T13:06:29Z</time>
</trkpt>
<trkpt lat="53.3473032" lon="18.4216787">
<ele>103</ele>
<time>2015-06-25T13:06:31Z</time>
</trkpt>
<trkpt lat="53.3473342" lon="18.4219602">
<ele>101</ele>
<time>2015-06-25T13:06:33Z</time>
</trkpt>
<trkpt lat="53.3474190" lon="18.4222001">
<ele>102</ele>
<time>2015-06-25T13:06:35Z</time>
</trkpt>
<trkpt lat="53.3474950" lon="18.4224202">
<ele>106</ele>
<time>2015-06-25T13:06:37Z</time>
</trkpt>
<trkpt lat="53.3475197" lon="18.4225083">
<ele>108</ele>
<time>2015-06-25T13:06:39Z</time>
</trkpt>
<trkpt lat="53.3475798" lon="18.4226247">
<ele>109</ele>
<time>2015-06-25T13:06:41Z</time>
</trkpt>
<trkpt lat="53.3476361" lon="18.4227929">
<ele>108</ele>
<time>2015-06-25T13:06:43Z</time>
</trkpt>
<trkpt lat="53.3476869" lon="18.4229408">
<ele>108</ele>
<time>2015-06-25T13:06:45Z</time>
</trkpt>
<trkpt lat="53.3477168" lon="18.4230433">
<ele>106</ele>
<time>2015-06-25T13:06:47Z</time>
</trkpt>
<trkpt lat="53.3477466" lon="18.4230997">
<ele>104</ele>
<time>2015-06-25T13:06:49Z</time>
</trkpt>
<trkpt lat="53.3477319" lon="18.4231302">
<ele>103</ele>
<time>2015-06-25T13:06:51Z</time>
</trkpt>
<trkpt lat="53.3477785" lon="18.4232373">
<ele>99</ele>
<time>2015-06-25T13:06:53Z</time>
</trkpt>
<trkpt lat="53.3478535" lon="18.4234051">
<ele>101</ele>
<time>2015-06-25T13:06:55Z</time>
</trkpt>
<trkpt lat="53.3479093" lon="18.4235945">
<ele>101</ele>
<time>2015-06-25T13:06:57Z</time>
</trkpt>
<trkpt lat="53.3480027" lon="18.4238668">
<ele>101</ele>
<time>2015-06-25T13:06:59Z</time>
</trkpt>
<trkpt lat="53.3481410" lon="18.4241731">
<ele>104</ele>
<time>2015-06-25T13:07:01Z</time>
</trkpt>
<trkpt lat="53.3482106" lon="18.4244570">
<ele>105</ele>
<time>2015-06-25T13:07:03Z</time>
</trkpt>
<trkpt lat="53.3482787" lon="18.4246325">
<ele>106</ele>
<time>2015-06-25T13:07:05Z</time>
</trkpt>
<trkpt lat="53.3482948" lon="18.4247822">
<ele>106</ele>
<time>2015-06-25T13:07:07Z</time>
</trkpt>
<trkpt lat="53.3483208" lon="18.4247584">
<ele>107</ele>
<time>2015-06-25T13:07:09Z</time>
</trkpt>
<trkpt lat="53.3483055" lon="18.4247555">
<ele>107</ele>
<time>2015-06-25T13:07:11Z</time>
</trkpt>
<trkpt lat="53.3484099" lon="18.4248389">
<ele>105</ele>
<time>2015-06-25T13:07:13Z</time>
</trkpt>
<trkpt lat="53.3484271" lon="18.4249811">
<ele>106</ele>
<time>2015-06-25T13:07:15Z</time>
</trkpt>
<trkpt lat="53.3484899" lon="18.4251274">
<ele>105</ele>
<time>2015-06-25T13:07:17Z</time>
</trkpt>
<trkpt lat="53.3485618" lon="18.4253184">
<ele>104</ele>
<time>2015-06-25T13:07:19Z</time>
</trkpt>
<trkpt lat="53.3486094" lon="18.4254843">
<ele>102</ele>
<time>2015-06-25T13:07:21Z</time>
</trkpt>
<trkpt lat="53.3487091" lon="18.4256964">
<ele>102</ele>
<time>2015-06-25T13:07:23Z</time>
</trkpt>
<trkpt lat="53.3487845" lon="18.4258388">
<ele>104</ele>
<time>2015-06-25T13:07:25Z</time>
</trkpt>
<trkpt lat="53.3489254" lon="18.4259986">
<ele>104</ele>
<time>2015-06-25T13:07:27Z</time>
</trkpt>
<trkpt lat="53.3490097" lon="18.4260674">
<ele>105</ele>
<time>2015-06-25T13:07:29Z</time>
</trkpt>
<trkpt lat="53.3489808" lon="18.4261261">
<ele>106</ele>
<time>2015-06-25T13:07:31Z</time>
</trkpt>
<trkpt lat="53.3489515" lon="18.4262131">
<ele>108</ele>
<time>2015-06-25T13:07:33Z</time>
</trkpt>
<trkpt lat="53.3489694" lon="18.4263508">
<ele>105</ele>
<time>2015-06-25T13:07:35Z</time>
</trkpt>
<trkpt lat="53.3488477" lon="18.4264163">
<ele>102</ele>
<time>2015-06-25T13:07:37Z</time>
</trkpt>
<trkpt lat="53.3487667" lon="18.426497">
<ele>104</ele>
<time>2015-06-25T13:07:39Z</time>
</trkpt>
<trkpt lat="53.3486362" lon="18.4266964">
<ele>103</ele>
<time>2015-06-25T13:07:41Z</time>
</trkpt>
<trkpt lat="53.3485019" lon="18.4268169">
<ele>105</ele>
<time>2015-06-25T13:07:43Z</time>
</trkpt>
<trkpt lat="53.3483285" lon="18.4269084">
<ele>103</ele>
<time>2015-06-25T13:07:45Z</time>
</trkpt>
<trkpt lat="53.3482413" lon="18.4270493">
<ele>104</ele>
<time>2015-06-25T13:07:47Z</time>
</trkpt>
<trkpt lat="53.3481668" lon="18.4272195">
<ele>103</ele>
<time>2015-06-25T13:07:49Z</time>
</trkpt>
<trkpt lat="53.3482231" lon="18.4274131">
<ele>101</ele>
<time>2015-06-25T13:07:51Z</time>
</trkpt>
<trkpt lat="53.3482427" lon="18.4276889">
<ele>97</ele>
<time>2015-06-25T13:07:53Z</time>
</trkpt>
<trkpt lat="53.3482254" lon="18.4279805">
<ele>95</ele>
<time>2015-06-25T13:07:55Z</time>
</trkpt>
<trkpt lat="53.3482160" lon="18.4283222">
<ele>94</ele>
<time>2015-06-25T13:07:57Z</time>
</trkpt>
<trkpt lat="53.3481851" lon="18.4287249">
<ele>94</ele>
<time>2015-06-25T13:07:59Z</time>
</trkpt>
<trkpt lat="53.3481671" lon="18.4292013">
<ele>91</ele>
<time>2015-06-25T13:08:01Z</time>
</trkpt>
<trkpt lat="53.3481863" lon="18.4295966">
<ele>89</ele>
<time>2015-06-25T13:08:03Z</time>
</trkpt>
<trkpt lat="53.3482137" lon="18.4300662">
<ele>88</ele>
<time>2015-06-25T13:08:05Z</time>
</trkpt>
<trkpt lat="53.3483001" lon="18.4304699">
<ele>87</ele>
<time>2015-06-25T13:08:07Z</time>
</trkpt>
<trkpt lat="53.3483195" lon="18.4309123">
<ele>86</ele>
<time>2015-06-25T13:08:09Z</time>
</trkpt>
<trkpt lat="53.3483333" lon="18.4313152">
<ele>86</ele>
<time>2015-06-25T13:08:11Z</time>
</trkpt>
<trkpt lat="53.3483923" lon="18.4316980">
<ele>86</ele>
<time>2015-06-25T13:08:13Z</time>
</trkpt>
<trkpt lat="53.3484001" lon="18.4320359">
<ele>88</ele>
<time>2015-06-25T13:08:15Z</time>
</trkpt>
<trkpt lat="53.3484191" lon="18.4324129">
<ele>87</ele>
<time>2015-06-25T13:08:17Z</time>
</trkpt>
<trkpt lat="53.3485199" lon="18.4327366">
<ele>87</ele>
<time>2015-06-25T13:08:19Z</time>
</trkpt>
<trkpt lat="53.348495" lon="18.4331192">
<ele>86</ele>
<time>2015-06-25T13:08:21Z</time>
</trkpt>
<trkpt lat="53.3485781" lon="18.4333791">
<ele>87</ele>
<time>2015-06-25T13:08:23Z</time>
</trkpt>
<trkpt lat="53.3486046" lon="18.4336738">
<ele>89</ele>
<time>2015-06-25T13:08:25Z</time>
</trkpt>
<trkpt lat="53.3486571" lon="18.4339339">
<ele>89</ele>
<time>2015-06-25T13:08:27Z</time>
</trkpt>
<trkpt lat="53.3486157" lon="18.4342419">
<ele>85</ele>
<time>2015-06-25T13:08:29Z</time>
</trkpt>
<trkpt lat="53.3487214" lon="18.4344986">
<ele>87</ele>
<time>2015-06-25T13:08:31Z</time>
</trkpt>
<trkpt lat="53.3487805" lon="18.4348443">
<ele>85</ele>
<time>2015-06-25T13:08:33Z</time>
</trkpt>
<trkpt lat="53.3487600" lon="18.4350445">
<ele>87</ele>
<time>2015-06-25T13:08:35Z</time>
</trkpt>
<trkpt lat="53.3487448" lon="18.4352406">
<ele>90</ele>
<time>2015-06-25T13:08:37Z</time>
</trkpt>
<trkpt lat="53.3487757" lon="18.4355397">
<ele>93</ele>
<time>2015-06-25T13:08:39Z</time>
</trkpt>
<trkpt lat="53.3488198" lon="18.4358249">
<ele>94</ele>
<time>2015-06-25T13:08:41Z</time>
</trkpt>
<trkpt lat="53.3488232" lon="18.4360409">
<ele>95</ele>
<time>2015-06-25T13:08:43Z</time>
</trkpt>
<trkpt lat="53.3488406" lon="18.4362297">
<ele>98</ele>
<time>2015-06-25T13:08:45Z</time>
</trkpt>
<trkpt lat="53.3489023" lon="18.4363542">
<ele>101</ele>
<time>2015-06-25T13:08:47Z</time>
</trkpt>
<trkpt lat="53.3490073" lon="18.4364207">
<ele>102</ele>
<time>2015-06-25T13:08:49Z</time>
</trkpt>
<trkpt lat="53.3491640" lon="18.4364600">
<ele>103</ele>
<time>2015-06-25T13:08:51Z</time>
</trkpt>
<trkpt lat="53.3493495" lon="18.4365261">
<ele>101</ele>
<time>2015-06-25T13:08:53Z</time>
</trkpt>
<trkpt lat="53.3494374" lon="18.4366130">
<ele>101</ele>
<time>2015-06-25T13:08:55Z</time>
</trkpt>
<trkpt lat="53.3494212" lon="18.4366186">
<ele>103</ele>
<time>2015-06-25T13:08:57Z</time>
</trkpt>
<trkpt lat="53.3493969" lon="18.4365980">
<ele>103</ele>
<time>2015-06-25T13:08:59Z</time>
</trkpt>
<trkpt lat="53.3494012" lon="18.4366397">
<ele>103</ele>
<time>2015-06-25T13:09:01Z</time>
</trkpt>
<trkpt lat="53.3494324" lon="18.4366487">
<ele>101</ele>
<time>2015-06-25T13:09:03Z</time>
</trkpt>
<trkpt lat="53.3494736" lon="18.4366689">
<ele>100</ele>
<time>2015-06-25T13:09:05Z</time>
</trkpt>
<trkpt lat="53.3495238" lon="18.4366940">
<ele>101</ele>
<time>2015-06-25T13:09:07Z</time>
</trkpt>
<trkpt lat="53.3496004" lon="18.4366645">
<ele>103</ele>
<time>2015-06-25T13:09:09Z</time>
</trkpt>
<trkpt lat="53.3496705" lon="18.4364656">
<ele>102</ele>
<time>2015-06-25T13:09:11Z</time>
</trkpt>
<trkpt lat="53.3497373" lon="18.4361488">
<ele>102</ele>
<time>2015-06-25T13:09:13Z</time>
</trkpt>
<trkpt lat="53.3498376" lon="18.4357814">
<ele>101</ele>
<time>2015-06-25T13:09:15Z</time>
</trkpt>
<trkpt lat="53.3499610" lon="18.4353416">
<ele>101</ele>
<time>2015-06-25T13:09:17Z</time>
</trkpt>
<trkpt lat="53.3500749" lon="18.4348631">
<ele>98</ele>
<time>2015-06-25T13:09:19Z</time>
</trkpt>
<trkpt lat="53.3501964" lon="18.4344011">
<ele>100</ele>
<time>2015-06-25T13:09:21Z</time>
</trkpt>
<trkpt lat="53.3502909" lon="18.4340234">
<ele>96</ele>
<time>2015-06-25T13:09:23Z</time>
</trkpt>
<trkpt lat="53.3503648" lon="18.4337124">
<ele>97</ele>
<time>2015-06-25T13:09:25Z</time>
</trkpt>
<trkpt lat="53.3504121" lon="18.4334815">
<ele>97</ele>
<time>2015-06-25T13:09:27Z</time>
</trkpt>
<trkpt lat="53.3504549" lon="18.4334587">
<ele>98</ele>
<time>2015-06-25T13:09:29Z</time>
</trkpt>
<trkpt lat="53.3505159" lon="18.4334698">
<ele>100</ele>
<time>2015-06-25T13:09:31Z</time>
</trkpt>
<trkpt lat="53.3506279" lon="18.4335156">
<ele>100</ele>
<time>2015-06-25T13:09:33Z</time>
</trkpt>
<trkpt lat="53.3506702" lon="18.4335434">
<ele>102</ele>
<time>2015-06-25T13:09:35Z</time>
</trkpt>
<trkpt lat="53.3506131" lon="18.4335096">
<ele>99</ele>
<time>2015-06-25T13:09:37Z</time>
</trkpt>
<trkpt lat="53.3505904" lon="18.4334886">
<ele>100</ele>
<time>2015-06-25T13:09:39Z</time>
</trkpt>
<trkpt lat="53.3505997" lon="18.4334993">
<ele>101</ele>
<time>2015-06-25T13:09:41Z</time>
</trkpt>
<trkpt lat="53.3505967" lon="18.4335037">
<ele>101</ele>
<time>2015-06-25T13:09:45Z</time>
</trkpt>
<trkpt lat="53.3506308" lon="18.4334819">
<ele>102</ele>
<time>2015-06-25T13:09:47Z</time>
</trkpt>
<trkpt lat="53.3506927" lon="18.4334369">
<ele>102</ele>
<time>2015-06-25T13:09:49Z</time>
</trkpt>
<trkpt lat="53.3507683" lon="18.4333664">
<ele>100</ele>
<time>2015-06-25T13:09:51Z</time>
</trkpt>
<trkpt lat="53.3509723" lon="18.4332735">
<ele>98</ele>
<time>2015-06-25T13:09:53Z</time>
</trkpt>
<trkpt lat="53.3511125" lon="18.4332047">
<ele>97</ele>
<time>2015-06-25T13:09:55Z</time>
</trkpt>
<trkpt lat="53.3512871" lon="18.4330905">
<ele>97</ele>
<time>2015-06-25T13:09:57Z</time>
</trkpt>
<trkpt lat="53.3513948" lon="18.4330814">
<ele>99</ele>
<time>2015-06-25T13:09:59Z</time>
</trkpt>
<trkpt lat="53.3514253" lon="18.4332230">
<ele>100</ele>
<time>2015-06-25T13:10:01Z</time>
</trkpt>
<trkpt lat="53.3514568" lon="18.4334672">
<ele>100</ele>
<time>2015-06-25T13:10:03Z</time>
</trkpt>
<trkpt lat="53.3515168" lon="18.4338322">
<ele>98</ele>
<time>2015-06-25T13:10:05Z</time>
</trkpt>
<trkpt lat="53.3515796" lon="18.4340409">
<ele>101</ele>
<time>2015-06-25T13:10:07Z</time>
</trkpt>
<trkpt lat="53.3516257" lon="18.4342176">
<ele>101</ele>
<time>2015-06-25T13:10:09Z</time>
</trkpt>
<trkpt lat="53.3516710" lon="18.4344466">
<ele>103</ele>
<time>2015-06-25T13:10:11Z</time>
</trkpt>
<trkpt lat="53.3516777" lon="18.4346827">
<ele>103</ele>
<time>2015-06-25T13:10:13Z</time>
</trkpt>
<trkpt lat="53.3516702" lon="18.4349750">
<ele>105</ele>
<time>2015-06-25T13:10:15Z</time>
</trkpt>
<trkpt lat="53.3516937" lon="18.4353030">
<ele>105</ele>
<time>2015-06-25T13:10:17Z</time>
</trkpt>
<trkpt lat="53.3517026" lon="18.4355172">
<ele>108</ele>
<time>2015-06-25T13:10:19Z</time>
</trkpt>
<trkpt lat="53.3516752" lon="18.4355346">
<ele>107</ele>
<time>2015-06-25T13:10:21Z</time>
</trkpt>
<trkpt lat="53.3516705" lon="18.4355707">
<ele>107</ele>
<time>2015-06-25T13:10:23Z</time>
</trkpt>
<trkpt lat="53.3516575" lon="18.4356173">
<ele>108</ele>
<time>2015-06-25T13:10:25Z</time>
</trkpt>
<trkpt lat="53.3516351" lon="18.4356146">
<ele>109</ele>
<time>2015-06-25T13:10:27Z</time>
</trkpt>
<trkpt lat="53.3515916" lon="18.4356563">
<ele>108</ele>
<time>2015-06-25T13:10:29Z</time>
</trkpt>
<trkpt lat="53.3515656" lon="18.4356325">
<ele>109</ele>
<time>2015-06-25T13:10:31Z</time>
</trkpt>
<trkpt lat="53.3515393" lon="18.4356212">
<ele>110</ele>
<time>2015-06-25T13:10:33Z</time>
</trkpt>
<trkpt lat="53.3515302" lon="18.4356293">
<ele>109</ele>
<time>2015-06-25T13:10:35Z</time>
</trkpt>
<trkpt lat="53.3515570" lon="18.4356483">
<ele>107</ele>
<time>2015-06-25T13:10:37Z</time>
</trkpt>
<trkpt lat="53.3515759" lon="18.4356546">
<ele>107</ele>
<time>2015-06-25T13:10:39Z</time>
</trkpt>
<trkpt lat="53.3515966" lon="18.4356690">
<ele>105</ele>
<time>2015-06-25T13:10:41Z</time>
</trkpt>
<trkpt lat="53.3516012" lon="18.4356875">
<ele>105</ele>
<time>2015-06-25T13:10:43Z</time>
</trkpt>
<trkpt lat="53.3515966" lon="18.4356977">
<ele>107</ele>
<time>2015-06-25T13:10:45Z</time>
</trkpt>
<trkpt lat="53.3515946" lon="18.4357134">
<ele>109</ele>
<time>2015-06-25T13:10:47Z</time>
</trkpt>
<trkpt lat="53.3515880" lon="18.4357355">
<ele>113</ele>
<time>2015-06-25T13:10:49Z</time>
</trkpt>
<trkpt lat="53.3515858" lon="18.4357499">
<ele>115</ele>
<time>2015-06-25T13:10:51Z</time>
</trkpt>
<trkpt lat="53.3515912" lon="18.4357566">
<ele>115</ele>
<time>2015-06-25T13:10:53Z</time>
</trkpt>
<trkpt lat="53.3515940" lon="18.4357592">
<ele>115</ele>
<time>2015-06-25T13:10:55Z</time>
</trkpt>
<trkpt lat="53.3515961" lon="18.4357659">
<ele>115</ele>
<time>2015-06-25T13:10:57Z</time>
</trkpt>
<trkpt lat="53.3515954" lon="18.4357699">
<ele>115</ele>
<time>2015-06-25T13:10:59Z</time>
</trkpt>
<trkpt lat="53.3515967" lon="18.4357711">
<ele>115</ele>
<time>2015-06-25T13:11:01Z</time>
</trkpt>
<trkpt lat="53.3515967" lon="18.4357720">
<ele>115</ele>
<time>2015-06-25T13:11:03Z</time>
</trkpt>
<trkpt lat="53.3515966" lon="18.4357724">
<ele>115</ele>
<time>2015-06-25T13:11:05Z</time>
</trkpt>
<trkpt lat="53.3515962" lon="18.4357730">
<ele>116</ele>
<time>2015-06-25T13:11:07Z</time>
</trkpt>
<trkpt lat="53.3515960" lon="18.4357733">
<ele>116</ele>
<time>2015-06-25T13:11:09Z</time>
</trkpt>
<trkpt lat="53.3515958" lon="18.4357734">
<ele>116</ele>
<time>2015-06-25T13:11:11Z</time>
</trkpt>
<trkpt lat="53.3515957" lon="18.4357734">
<ele>116</ele>
<time>2015-06-25T13:11:13Z</time>
</trkpt>
<trkpt lat="53.3515955" lon="18.4357733">
<ele>116</ele>
<time>2015-06-25T13:11:15Z</time>
</trkpt>
<trkpt lat="53.3515954" lon="18.4357732">
<ele>116</ele>
<time>2015-06-25T13:11:17Z</time>
</trkpt>
<trkpt lat="53.3515951" lon="18.4357729">
<ele>116</ele>
<time>2015-06-25T13:11:19Z</time>
</trkpt>
<trkpt lat="53.3515950" lon="18.4357727">
<ele>116</ele>
<time>2015-06-25T13:11:21Z</time>
</trkpt>
<trkpt lat="53.3515948" lon="18.4357725">
<ele>116</ele>
<time>2015-06-25T13:11:23Z</time>
</trkpt>
<trkpt lat="53.3515947" lon="18.4357724">
<ele>116</ele>
<time>2015-06-25T13:11:25Z</time>
</trkpt>
<trkpt lat="53.3515945" lon="18.4357722">
<ele>116</ele>
<time>2015-06-25T13:11:27Z</time>
</trkpt>
<trkpt lat="53.3515944" lon="18.4357721">
<ele>116</ele>
<time>2015-06-25T13:11:29Z</time>
</trkpt>
<trkpt lat="53.3515943" lon="18.4357720">
<ele>116</ele>
<time>2015-06-25T13:11:31Z</time>
</trkpt>
<trkpt lat="53.3515943" lon="18.4357719">
<ele>116</ele>
<time>2015-06-25T13:11:33Z</time>
</trkpt>
<trkpt lat="53.3515942" lon="18.4357718">
<ele>116</ele>
<time>2015-06-25T13:11:35Z</time>
</trkpt>
<trkpt lat="53.3515941" lon="18.4357717">
<ele>116</ele>
<time>2015-06-25T13:11:37Z</time>
</trkpt>
<trkpt lat="53.3515941" lon="18.4357716">
<ele>116</ele>
<time>2015-06-25T13:11:39Z</time>
</trkpt>
<trkpt lat="53.3515940" lon="18.4357716">
<ele>116</ele>
<time>2015-06-25T13:11:41Z</time>
</trkpt>
<trkpt lat="53.3515939" lon="18.4357715">
<ele>116</ele>
<time>2015-06-25T13:11:43Z</time>
</trkpt>
<trkpt lat="53.3515938" lon="18.4357715">
<ele>116</ele>
<time>2015-06-25T13:11:45Z</time>
</trkpt>
<trkpt lat="53.3515938" lon="18.4357714">
<ele>116</ele>
<time>2015-06-25T13:11:47Z</time>
</trkpt>
<trkpt lat="53.3515938" lon="18.4357714">
<ele>116</ele>
<time>2015-06-25T13:11:49Z</time>
</trkpt>
<trkpt lat="53.3515938" lon="18.4357713">
<ele>116</ele>
<time>2015-06-25T13:11:51Z</time>
</trkpt>
<trkpt lat="53.3515937" lon="18.4357712">
<ele>116</ele>
<time>2015-06-25T13:11:53Z</time>
</trkpt>
<trkpt lat="53.3515937" lon="18.4357712">
<ele>116</ele>
<time>2015-06-25T13:11:55Z</time>
</trkpt>
<trkpt lat="53.3515936" lon="18.4357712">
<ele>116</ele>
<time>2015-06-25T13:11:57Z</time>
</trkpt>
<trkpt lat="53.3515936" lon="18.4357713">
<ele>116</ele>
<time>2015-06-25T13:11:59Z</time>
</trkpt>
<trkpt lat="53.3515936" lon="18.4357713">
<ele>116</ele>
<time>2015-06-25T13:12:01Z</time>
</trkpt>
<trkpt lat="53.3515936" lon="18.4357714">
<ele>116</ele>
<time>2015-06-25T13:12:03Z</time>
</trkpt>
<trkpt lat="53.3515936" lon="18.4357714">
<ele>116</ele>
<time>2015-06-25T13:12:05Z</time>
</trkpt>
<trkpt lat="53.3515937" lon="18.4357715">
<ele>116</ele>
<time>2015-06-25T13:12:07Z</time>
</trkpt>
<trkpt lat="53.3515938" lon="18.4357717">
<ele>116</ele>
<time>2015-06-25T13:12:09Z</time>
</trkpt>
<trkpt lat="53.3515938" lon="18.4357718">
<ele>116</ele>
<time>2015-06-25T13:12:11Z</time>
</trkpt>
<trkpt lat="53.3515939" lon="18.4357718">
<ele>116</ele>
<time>2015-06-25T13:12:13Z</time>
</trkpt>
<trkpt lat="53.3515940" lon="18.4357719">
<ele>116</ele>
<time>2015-06-25T13:12:15Z</time>
</trkpt>
<trkpt lat="53.3515941" lon="18.4357720">
<ele>116</ele>
<time>2015-06-25T13:12:17Z</time>
</trkpt>
<trkpt lat="53.3515942" lon="18.4357721">
<ele>116</ele>
<time>2015-06-25T13:12:19Z</time>
</trkpt>
<trkpt lat="53.3515943" lon="18.4357722">
<ele>116</ele>
<time>2015-06-25T13:12:21Z</time>
</trkpt>
<trkpt lat="53.3515944" lon="18.4357724">
<ele>116</ele>
<time>2015-06-25T13:12:23Z</time>
</trkpt>
<trkpt lat="53.3515945" lon="18.4357725">
<ele>116</ele>
<time>2015-06-25T13:12:25Z</time>
</trkpt>
<trkpt lat="53.3515947" lon="18.4357726">
<ele>116</ele>
<time>2015-06-25T13:12:27Z</time>
</trkpt>
<trkpt lat="53.3515949" lon="18.4357727">
<ele>116</ele>
<time>2015-06-25T13:12:29Z</time>
</trkpt>
<trkpt lat="53.3515950" lon="18.4357728">
<ele>116</ele>
<time>2015-06-25T13:12:31Z</time>
</trkpt>
<trkpt lat="53.3515952" lon="18.4357729">
<ele>116</ele>
<time>2015-06-25T13:12:33Z</time>
</trkpt>
<trkpt lat="53.3515953" lon="18.4357731">
<ele>116</ele>
<time>2015-06-25T13:12:35Z</time>
</trkpt>
<trkpt lat="53.3515954" lon="18.4357732">
<ele>116</ele>
<time>2015-06-25T13:12:37Z</time>
</trkpt>
<trkpt lat="53.3515955" lon="18.4357733">
<ele>116</ele>
<time>2015-06-25T13:12:39Z</time>
</trkpt>
<trkpt lat="53.3515956" lon="18.4357735">
<ele>116</ele>
<time>2015-06-25T13:12:41Z</time>
</trkpt>
<trkpt lat="53.3515957" lon="18.4357736">
<ele>116</ele>
<time>2015-06-25T13:12:43Z</time>
</trkpt>
<trkpt lat="53.3515958" lon="18.4357737">
<ele>116</ele>
<time>2015-06-25T13:12:45Z</time>
</trkpt>
<trkpt lat="53.3515958" lon="18.4357738">
<ele>116</ele>
<time>2015-06-25T13:12:47Z</time>
</trkpt>
<trkpt lat="53.3515958" lon="18.4357739">
<ele>116</ele>
<time>2015-06-25T13:12:49Z</time>
</trkpt>
<trkpt lat="53.3515958" lon="18.4357739">
<ele>116</ele>
<time>2015-06-25T13:12:51Z</time>
</trkpt>
<trkpt lat="53.3515959" lon="18.4357739">
<ele>116</ele>
<time>2015-06-25T13:12:53Z</time>
</trkpt>
<trkpt lat="53.3515959" lon="18.4357739">
<ele>116</ele>
<time>2015-06-25T13:12:55Z</time>
</trkpt>
<trkpt lat="53.3515959" lon="18.4357740">
<ele>116</ele>
<time>2015-06-25T13:12:57Z</time>
</trkpt>
<trkpt lat="53.3515959" lon="18.4357740">
<ele>116</ele>
<time>2015-06-25T13:12:59Z</time>
</trkpt>
<trkpt lat="53.3515958" lon="18.4357740">
<ele>116</ele>
<time>2015-06-25T13:13:01Z</time>
</trkpt>
<trkpt lat="53.3515958" lon="18.4357740">
<ele>116</ele>
<time>2015-06-25T13:13:03Z</time>
</trkpt>
<trkpt lat="53.3515958" lon="18.4357741">
<ele>116</ele>
<time>2015-06-25T13:13:05Z</time>
</trkpt>
<trkpt lat="53.3515957" lon="18.4357740">
<ele>116</ele>
<time>2015-06-25T13:13:07Z</time>
</trkpt>
<trkpt lat="53.3515957" lon="18.4357741">
<ele>116</ele>
<time>2015-06-25T13:13:09Z</time>
</trkpt>
<trkpt lat="53.3515957" lon="18.4357741">
<ele>116</ele>
<time>2015-06-25T13:13:11Z</time>
</trkpt>
<trkpt lat="53.3515958" lon="18.4357742">
<ele>116</ele>
<time>2015-06-25T13:13:13Z</time>
</trkpt>
<trkpt lat="53.3515959" lon="18.4357743">
<ele>116</ele>
<time>2015-06-25T13:13:15Z</time>
</trkpt>
<trkpt lat="53.3515959" lon="18.4357744">
<ele>116</ele>
<time>2015-06-25T13:13:17Z</time>
</trkpt>
<trkpt lat="53.3515960" lon="18.4357745">
<ele>116</ele>
<time>2015-06-25T13:13:19Z</time>
</trkpt>
<trkpt lat="53.3515961" lon="18.4357745">
<ele>116</ele>
<time>2015-06-25T13:13:21Z</time>
</trkpt>
<trkpt lat="53.3515961" lon="18.4357745">
<ele>116</ele>
<time>2015-06-25T13:13:23Z</time>
</trkpt>
<trkpt lat="53.3515962" lon="18.4357745">
<ele>116</ele>
<time>2015-06-25T13:13:25Z</time>
</trkpt>
<trkpt lat="53.3515962" lon="18.4357745">
<ele>116</ele>
<time>2015-06-25T13:13:27Z</time>
</trkpt>
<trkpt lat="53.3515963" lon="18.4357745">
<ele>116</ele>
<time>2015-06-25T13:13:29Z</time>
</trkpt>
<trkpt lat="53.3515964" lon="18.4357746">
<ele>116</ele>
<time>2015-06-25T13:13:31Z</time>
</trkpt>
<trkpt lat="53.3515965" lon="18.4357746">
<ele>116</ele>
<time>2015-06-25T13:13:33Z</time>
</trkpt>
<trkpt lat="53.3515966" lon="18.4357748">
<ele>116</ele>
<time>2015-06-25T13:13:35Z</time>
</trkpt>
<trkpt lat="53.3515966" lon="18.4357749">
<ele>116</ele>
<time>2015-06-25T13:13:37Z</time>
</trkpt>
<trkpt lat="53.3515967" lon="18.4357746">
<ele>116</ele>
<time>2015-06-25T13:13:39Z</time>
</trkpt>
<trkpt lat="53.3515967" lon="18.4357745">
<ele>116</ele>
<time>2015-06-25T13:13:41Z</time>
</trkpt>
<trkpt lat="53.3515967" lon="18.4357744">
<ele>116</ele>
<time>2015-06-25T13:13:43Z</time>
</trkpt>
<trkpt lat="53.3515967" lon="18.4357744">
<ele>116</ele>
<time>2015-06-25T13:13:45Z</time>
</trkpt>
<trkpt lat="53.3515967" lon="18.4357744">
<ele>116</ele>
<time>2015-06-25T13:13:47Z</time>
</trkpt>
<trkpt lat="53.3515967" lon="18.4357744">
<ele>116</ele>
<time>2015-06-25T13:13:49Z</time>
</trkpt>
<trkpt lat="53.3515968" lon="18.4357745">
<ele>116</ele>
<time>2015-06-25T13:13:51Z</time>
</trkpt>
<trkpt lat="53.3515969" lon="18.4357745">
<ele>116</ele>
<time>2015-06-25T13:13:53Z</time>
</trkpt>
<trkpt lat="53.3515968" lon="18.4357745">
<ele>117</ele>
<time>2015-06-25T13:13:55Z</time>
</trkpt>
<trkpt lat="53.3515968" lon="18.4357745">
<ele>117</ele>
<time>2015-06-25T13:13:57Z</time>
</trkpt>
<trkpt lat="53.3515968" lon="18.4357746">
<ele>117</ele>
<time>2015-06-25T13:13:59Z</time>
</trkpt>
<trkpt lat="53.3515968" lon="18.4357747">
<ele>117</ele>
<time>2015-06-25T13:14:01Z</time>
</trkpt>
<trkpt lat="53.3515968" lon="18.4357747">
<ele>117</ele>
<time>2015-06-25T13:14:03Z</time>
</trkpt>
<trkpt lat="53.3515967" lon="18.4357747">
<ele>117</ele>
<time>2015-06-25T13:14:05Z</time>
</trkpt>
<trkpt lat="53.3515967" lon="18.4357747">
<ele>117</ele>
<time>2015-06-25T13:14:07Z</time>
</trkpt>
<trkpt lat="53.3515968" lon="18.4357748">
<ele>117</ele>
<time>2015-06-25T13:14:09Z</time>
</trkpt>
<trkpt lat="53.3515968" lon="18.4357748">
<ele>117</ele>
<time>2015-06-25T13:14:11Z</time>
</trkpt>
<trkpt lat="53.3515969" lon="18.4357748">
<ele>117</ele>
<time>2015-06-25T13:14:13Z</time>
</trkpt>
<trkpt lat="53.3515969" lon="18.4357749">
<ele>117</ele>
<time>2015-06-25T13:14:15Z</time>
</trkpt>
<trkpt lat="53.3515969" lon="18.4357749">
<ele>117</ele>
<time>2015-06-25T13:14:17Z</time>
</trkpt>
<trkpt lat="53.3515969" lon="18.4357750">
<ele>117</ele>
<time>2015-06-25T13:14:19Z</time>
</trkpt>
<trkpt lat="53.3515969" lon="18.4357751">
<ele>117</ele>
<time>2015-06-25T13:14:21Z</time>
</trkpt>
<trkpt lat="53.3515969" lon="18.4357751">
<ele>117</ele>
<time>2015-06-25T13:14:23Z</time>
</trkpt>
<trkpt lat="53.3515969" lon="18.4357751">
<ele>117</ele>
<time>2015-06-25T13:14:25Z</time>
</trkpt>
<trkpt lat="53.3515968" lon="18.4357751">
<ele>117</ele>
<time>2015-06-25T13:14:27Z</time>
</trkpt>
<trkpt lat="53.3515967" lon="18.4357751">
<ele>117</ele>
<time>2015-06-25T13:14:29Z</time>
</trkpt>
<trkpt lat="53.3515967" lon="18.4357752">
<ele>117</ele>
<time>2015-06-25T13:14:31Z</time>
</trkpt>
<trkpt lat="53.3515968" lon="18.4357752">
<ele>117</ele>
<time>2015-06-25T13:14:33Z</time>
</trkpt>
<trkpt lat="53.3515968" lon="18.4357753">
<ele>117</ele>
<time>2015-06-25T13:14:35Z</time>
</trkpt>
<trkpt lat="53.3515968" lon="18.4357754">
<ele>117</ele>
<time>2015-06-25T13:14:37Z</time>
</trkpt>
<trkpt lat="53.3515968" lon="18.4357755">
<ele>117</ele>
<time>2015-06-25T13:14:39Z</time>
</trkpt>
<trkpt lat="53.3515968" lon="18.4357755">
<ele>117</ele>
<time>2015-06-25T13:14:41Z</time>
</trkpt>
<trkpt lat="53.3515969" lon="18.4357756">
<ele>117</ele>
<time>2015-06-25T13:14:43Z</time>
</trkpt>
<trkpt lat="53.3515968" lon="18.4357757">
<ele>117</ele>
<time>2015-06-25T13:14:45Z</time>
</trkpt>
<trkpt lat="53.3515969" lon="18.4357758">
<ele>117</ele>
<time>2015-06-25T13:14:47Z</time>
</trkpt>
<trkpt lat="53.3515969" lon="18.4357758">
<ele>117</ele>
<time>2015-06-25T13:14:49Z</time>
</trkpt>
<trkpt lat="53.3515969" lon="18.4357757">
<ele>117</ele>
<time>2015-06-25T13:14:51Z</time>
</trkpt>
<trkpt lat="53.351597" lon="18.4357757">
<ele>117</ele>
<time>2015-06-25T13:14:53Z</time>
</trkpt>
<trkpt lat="53.3515970" lon="18.4357757">
<ele>117</ele>
<time>2015-06-25T13:14:55Z</time>
</trkpt>
<trkpt lat="53.3515970" lon="18.4357756">
<ele>117</ele>
<time>2015-06-25T13:14:57Z</time>
</trkpt>
<trkpt lat="53.3515970" lon="18.4357754">
<ele>117</ele>
<time>2015-06-25T13:14:59Z</time>
</trkpt>
<trkpt lat="53.3515970" lon="18.4357752">
<ele>117</ele>
<time>2015-06-25T13:15:01Z</time>
</trkpt>
<trkpt lat="53.351597" lon="18.4357751">
<ele>117</ele>
<time>2015-06-25T13:15:03Z</time>
</trkpt>
<trkpt lat="53.3515969" lon="18.4357750">
<ele>117</ele>
<time>2015-06-25T13:15:05Z</time>
</trkpt>
<trkpt lat="53.3515969" lon="18.4357749">
<ele>117</ele>
<time>2015-06-25T13:15:07Z</time>
</trkpt>
<trkpt lat="53.3515970" lon="18.4357748">
<ele>117</ele>
<time>2015-06-25T13:15:09Z</time>
</trkpt>
<trkpt lat="53.3515970" lon="18.4357747">
<ele>117</ele>
<time>2015-06-25T13:15:11Z</time>
</trkpt>
<trkpt lat="53.3515971" lon="18.4357746">
<ele>117</ele>
<time>2015-06-25T13:15:13Z</time>
</trkpt>
<trkpt lat="53.3515971" lon="18.4357745">
<ele>117</ele>
<time>2015-06-25T13:15:15Z</time>
</trkpt>
<trkpt lat="53.3515971" lon="18.4357744">
<ele>117</ele>
<time>2015-06-25T13:15:17Z</time>
</trkpt>
<trkpt lat="53.3515971" lon="18.4357743">
<ele>117</ele>
<time>2015-06-25T13:15:19Z</time>
</trkpt>
<trkpt lat="53.3515971" lon="18.4357742">
<ele>117</ele>
<time>2015-06-25T13:15:21Z</time>
</trkpt>
<trkpt lat="53.3515970" lon="18.4357741">
<ele>117</ele>
<time>2015-06-25T13:15:23Z</time>
</trkpt>
<trkpt lat="53.3515969" lon="18.4357740">
<ele>117</ele>
<time>2015-06-25T13:15:25Z</time>
</trkpt>
<trkpt lat="53.3515968" lon="18.4357739">
<ele>117</ele>
<time>2015-06-25T13:15:27Z</time>
</trkpt>
<trkpt lat="53.3515968" lon="18.4357739">
<ele>117</ele>
<time>2015-06-25T13:15:29Z</time>
</trkpt>
<trkpt lat="53.3515967" lon="18.4357739">
<ele>117</ele>
<time>2015-06-25T13:15:31Z</time>
</trkpt>
<trkpt lat="53.3515967" lon="18.4357739">
<ele>117</ele>
<time>2015-06-25T13:15:33Z</time>
</trkpt>
<trkpt lat="53.3515966" lon="18.4357739">
<ele>117</ele>
<time>2015-06-25T13:15:35Z</time>
</trkpt>
<trkpt lat="53.3515965" lon="18.4357739">
<ele>117</ele>
<time>2015-06-25T13:15:37Z</time>
</trkpt>
<trkpt lat="53.3515965" lon="18.435774">
<ele>117</ele>
<time>2015-06-25T13:15:39Z</time>
</trkpt>
<trkpt lat="53.3515964" lon="18.435774">
<ele>117</ele>
<time>2015-06-25T13:15:41Z</time>
</trkpt>
<trkpt lat="53.3515964" lon="18.4357739">
<ele>117</ele>
<time>2015-06-25T13:15:43Z</time>
</trkpt>
<trkpt lat="53.3515963" lon="18.4357739">
<ele>117</ele>
<time>2015-06-25T13:15:45Z</time>
</trkpt>
<trkpt lat="53.3515963" lon="18.4357739">
<ele>117</ele>
<time>2015-06-25T13:15:47Z</time>
</trkpt>
<trkpt lat="53.3515962" lon="18.4357739">
<ele>117</ele>
<time>2015-06-25T13:15:49Z</time>
</trkpt>
<trkpt lat="53.3515963" lon="18.4357739">
<ele>117</ele>
<time>2015-06-25T13:15:51Z</time>
</trkpt>
<trkpt lat="53.3515962" lon="18.4357738">
<ele>117</ele>
<time>2015-06-25T13:15:53Z</time>
</trkpt>
<trkpt lat="53.3515962" lon="18.4357738">
<ele>117</ele>
<time>2015-06-25T13:15:55Z</time>
</trkpt>
<trkpt lat="53.3515962" lon="18.4357739">
<ele>117</ele>
<time>2015-06-25T13:15:57Z</time>
</trkpt>
<trkpt lat="53.3515962" lon="18.4357740">
<ele>117</ele>
<time>2015-06-25T13:15:59Z</time>
</trkpt>
<trkpt lat="53.3515963" lon="18.4357740">
<ele>117</ele>
<time>2015-06-25T13:16:01Z</time>
</trkpt>
<trkpt lat="53.3515963" lon="18.4357740">
<ele>117</ele>
<time>2015-06-25T13:16:03Z</time>
</trkpt>
<trkpt lat="53.3515964" lon="18.4357740">
<ele>117</ele>
<time>2015-06-25T13:16:05Z</time>
</trkpt>
<trkpt lat="53.3515964" lon="18.4357740">
<ele>117</ele>
<time>2015-06-25T13:16:07Z</time>
</trkpt>
<trkpt lat="53.3515964" lon="18.4357740">
<ele>117</ele>
<time>2015-06-25T13:16:09Z</time>
</trkpt>
<trkpt lat="53.3515965" lon="18.4357739">
<ele>117</ele>
<time>2015-06-25T13:16:11Z</time>
</trkpt>
<trkpt lat="53.3515965" lon="18.4357739">
<ele>117</ele>
<time>2015-06-25T13:16:13Z</time>
</trkpt>
<trkpt lat="53.3515965" lon="18.4357739">
<ele>117</ele>
<time>2015-06-25T13:16:15Z</time>
</trkpt>
<trkpt lat="53.3515965" lon="18.4357739">
<ele>117</ele>
<time>2015-06-25T13:16:17Z</time>
</trkpt>
<trkpt lat="53.3515965" lon="18.4357739">
<ele>117</ele>
<time>2015-06-25T13:16:19Z</time>
</trkpt>
<trkpt lat="53.3515964" lon="18.4357739">
<ele>117</ele>
<time>2015-06-25T13:16:21Z</time>
</trkpt>
<trkpt lat="53.3515963" lon="18.4357739">
<ele>117</ele>
<time>2015-06-25T13:16:23Z</time>
</trkpt>
<trkpt lat="53.3515962" lon="18.4357740">
<ele>117</ele>
<time>2015-06-25T13:16:25Z</time>
</trkpt>
<trkpt lat="53.3515961" lon="18.4357740">
<ele>117</ele>
<time>2015-06-25T13:16:29Z</time>
</trkpt>
<trkpt lat="53.3515961" lon="18.4357740">
<ele>117</ele>
<time>2015-06-25T13:16:31Z</time>
</trkpt>
<trkpt lat="53.3515960" lon="18.4357739">
<ele>117</ele>
<time>2015-06-25T13:16:33Z</time>
</trkpt>
<trkpt lat="53.3515960" lon="18.4357739">
<ele>117</ele>
<time>2015-06-25T13:16:35Z</time>
</trkpt>
<trkpt lat="53.3515961" lon="18.4357739">
<ele>117</ele>
<time>2015-06-25T13:16:37Z</time>
</trkpt>
<trkpt lat="53.3515961" lon="18.4357739">
<ele>117</ele>
<time>2015-06-25T13:16:39Z</time>
</trkpt>
<trkpt lat="53.3515960" lon="18.4357738">
<ele>117</ele>
<time>2015-06-25T13:16:41Z</time>
</trkpt>
<trkpt lat="53.3515960" lon="18.4357737">
<ele>117</ele>
<time>2015-06-25T13:16:43Z</time>
</trkpt>
<trkpt lat="53.3515960" lon="18.4357737">
<ele>117</ele>
<time>2015-06-25T13:16:45Z</time>
</trkpt>
<trkpt lat="53.3515960" lon="18.4357736">
<ele>117</ele>
<time>2015-06-25T13:16:47Z</time>
</trkpt>
<trkpt lat="53.3515960" lon="18.4357735">
<ele>117</ele>
<time>2015-06-25T13:16:49Z</time>
</trkpt>
<trkpt lat="53.3515960" lon="18.4357734">
<ele>117</ele>
<time>2015-06-25T13:16:51Z</time>
</trkpt>
<trkpt lat="53.3515960" lon="18.4357733">
<ele>117</ele>
<time>2015-06-25T13:16:53Z</time>
</trkpt>
<trkpt lat="53.3515960" lon="18.4357733">
<ele>117</ele>
<time>2015-06-25T13:16:55Z</time>
</trkpt>
<trkpt lat="53.3515960" lon="18.4357733">
<ele>117</ele>
<time>2015-06-25T13:16:57Z</time>
</trkpt>
<trkpt lat="53.3515959" lon="18.4357733">
<ele>117</ele>
<time>2015-06-25T13:16:59Z</time>
</trkpt>
<trkpt lat="53.3515959" lon="18.4357733">
<ele>117</ele>
<time>2015-06-25T13:17:01Z</time>
</trkpt>
<trkpt lat="53.3515958" lon="18.4357733">
<ele>117</ele>
<time>2015-06-25T13:17:03Z</time>
</trkpt>
<trkpt lat="53.3515958" lon="18.4357733">
<ele>117</ele>
<time>2015-06-25T13:17:05Z</time>
</trkpt>
<trkpt lat="53.3515957" lon="18.4357734">
<ele>117</ele>
<time>2015-06-25T13:17:07Z</time>
</trkpt>
<trkpt lat="53.3515956" lon="18.4357734">
<ele>117</ele>
<time>2015-06-25T13:17:09Z</time>
</trkpt>
<trkpt lat="53.3515955" lon="18.4357734">
<ele>117</ele>
<time>2015-06-25T13:17:11Z</time>
</trkpt>
<trkpt lat="53.3515955" lon="18.4357734">
<ele>117</ele>
<time>2015-06-25T13:17:13Z</time>
</trkpt>
<trkpt lat="53.3515954" lon="18.4357735">
<ele>116</ele>
<time>2015-06-25T13:17:15Z</time>
</trkpt>
<trkpt lat="53.3515954" lon="18.4357735">
<ele>116</ele>
<time>2015-06-25T13:17:17Z</time>
</trkpt>
<trkpt lat="53.3515953" lon="18.4357736">
<ele>116</ele>
<time>2015-06-25T13:17:19Z</time>
</trkpt>
<trkpt lat="53.3515953" lon="18.4357735">
<ele>116</ele>
<time>2015-06-25T13:17:21Z</time>
</trkpt>
<trkpt lat="53.3515953" lon="18.4357736">
<ele>116</ele>
<time>2015-06-25T13:17:23Z</time>
</trkpt>
<trkpt lat="53.3515952" lon="18.4357736">
<ele>116</ele>
<time>2015-06-25T13:17:25Z</time>
</trkpt>
<trkpt lat="53.3515952" lon="18.4357736">
<ele>116</ele>
<time>2015-06-25T13:17:27Z</time>
</trkpt>
<trkpt lat="53.3515952" lon="18.4357736">
<ele>116</ele>
<time>2015-06-25T13:17:29Z</time>
</trkpt>
<trkpt lat="53.3515951" lon="18.4357736">
<ele>116</ele>
<time>2015-06-25T13:17:31Z</time>
</trkpt>
<trkpt lat="53.3515950" lon="18.4357735">
<ele>116</ele>
<time>2015-06-25T13:17:33Z</time>
</trkpt>
<trkpt lat="53.3515950" lon="18.4357734">
<ele>116</ele>
<time>2015-06-25T13:17:35Z</time>
</trkpt>
<trkpt lat="53.3515950" lon="18.4357733">
<ele>116</ele>
<time>2015-06-25T13:17:37Z</time>
</trkpt>
<trkpt lat="53.3515950" lon="18.4357732">
<ele>116</ele>
<time>2015-06-25T13:17:39Z</time>
</trkpt>
<trkpt lat="53.3515950" lon="18.4357732">
<ele>116</ele>
<time>2015-06-25T13:17:41Z</time>
</trkpt>
<trkpt lat="53.3515950" lon="18.4357731">
<ele>116</ele>
<time>2015-06-25T13:17:43Z</time>
</trkpt>
<trkpt lat="53.3515950" lon="18.4357731">
<ele>116</ele>
<time>2015-06-25T13:17:45Z</time>
</trkpt>
<trkpt lat="53.3515950" lon="18.4357732">
<ele>116</ele>
<time>2015-06-25T13:17:47Z</time>
</trkpt>
<trkpt lat="53.3515950" lon="18.4357732">
<ele>116</ele>
<time>2015-06-25T13:17:49Z</time>
</trkpt>
<trkpt lat="53.3515951" lon="18.4357732">
<ele>116</ele>
<time>2015-06-25T13:17:51Z</time>
</trkpt>
<trkpt lat="53.3515951" lon="18.4357731">
<ele>116</ele>
<time>2015-06-25T13:17:53Z</time>
</trkpt>
<trkpt lat="53.3515951" lon="18.4357731">
<ele>116</ele>
<time>2015-06-25T13:17:55Z</time>
</trkpt>
<trkpt lat="53.3515951" lon="18.4357731">
<ele>116</ele>
<time>2015-06-25T13:17:57Z</time>
</trkpt>
<trkpt lat="53.3515951" lon="18.4357731">
<ele>117</ele>
<time>2015-06-25T13:17:59Z</time>
</trkpt>
<trkpt lat="53.3515951" lon="18.4357731">
<ele>117</ele>
<time>2015-06-25T13:18:01Z</time>
</trkpt>
<trkpt lat="53.3515949" lon="18.4357730">
<ele>117</ele>
<time>2015-06-25T13:18:03Z</time>
</trkpt>
<trkpt lat="53.3515947" lon="18.435773">
<ele>117</ele>
<time>2015-06-25T13:18:05Z</time>
</trkpt>
<trkpt lat="53.3515947" lon="18.4357730">
<ele>117</ele>
<time>2015-06-25T13:18:07Z</time>
</trkpt>
<trkpt lat="53.3515948" lon="18.4357731">
<ele>117</ele>
<time>2015-06-25T13:18:09Z</time>
</trkpt>
<trkpt lat="53.3515948" lon="18.4357732">
<ele>117</ele>
<time>2015-06-25T13:18:11Z</time>
</trkpt>
<trkpt lat="53.3515949" lon="18.4357732">
<ele>117</ele>
<time>2015-06-25T13:18:13Z</time>
</trkpt>
<trkpt lat="53.3515949" lon="18.4357732">
<ele>117</ele>
<time>2015-06-25T13:18:15Z</time>
</trkpt>
<trkpt lat="53.3515949" lon="18.4357731">
<ele>117</ele>
<time>2015-06-25T13:18:17Z</time>
</trkpt>
<trkpt lat="53.3515950" lon="18.4357731">
<ele>117</ele>
<time>2015-06-25T13:18:19Z</time>
</trkpt>
<trkpt lat="53.3515950" lon="18.4357730">
<ele>117</ele>
<time>2015-06-25T13:18:21Z</time>
</trkpt>
<trkpt lat="53.3515949" lon="18.4357729">
<ele>117</ele>
<time>2015-06-25T13:18:23Z</time>
</trkpt>
<trkpt lat="53.3515948" lon="18.4357728">
<ele>117</ele>
<time>2015-06-25T13:18:25Z</time>
</trkpt>
<trkpt lat="53.3515947" lon="18.4357727">
<ele>117</ele>
<time>2015-06-25T13:18:27Z</time>
</trkpt>
<trkpt lat="53.3515946" lon="18.4357726">
<ele>117</ele>
<time>2015-06-25T13:18:29Z</time>
</trkpt>
<trkpt lat="53.3515946" lon="18.4357725">
<ele>117</ele>
<time>2015-06-25T13:18:31Z</time>
</trkpt>
<trkpt lat="53.3515945" lon="18.4357723">
<ele>117</ele>
<time>2015-06-25T13:18:33Z</time>
</trkpt>
<trkpt lat="53.3515945" lon="18.4357722">
<ele>117</ele>
<time>2015-06-25T13:18:35Z</time>
</trkpt>
<trkpt lat="53.3515944" lon="18.4357720">
<ele>117</ele>
<time>2015-06-25T13:18:37Z</time>
</trkpt>
<trkpt lat="53.3515944" lon="18.4357719">
<ele>117</ele>
<time>2015-06-25T13:18:39Z</time>
</trkpt>
<trkpt lat="53.3515943" lon="18.4357719">
<ele>117</ele>
<time>2015-06-25T13:18:41Z</time>
</trkpt>
<trkpt lat="53.3515943" lon="18.435772">
<ele>117</ele>
<time>2015-06-25T13:18:43Z</time>
</trkpt>
<trkpt lat="53.3515943" lon="18.4357719">
<ele>117</ele>
<time>2015-06-25T13:18:45Z</time>
</trkpt>
<trkpt lat="53.3515943" lon="18.4357719">
<ele>117</ele>
<time>2015-06-25T13:18:47Z</time>
</trkpt>
<trkpt lat="53.3515943" lon="18.4357719">
<ele>117</ele>
<time>2015-06-25T13:18:51Z</time>
</trkpt>
<trkpt lat="53.3515943" lon="18.4357719">
<ele>117</ele>
<time>2015-06-25T13:18:53Z</time>
</trkpt>
<trkpt lat="53.3515944" lon="18.4357719">
<ele>117</ele>
<time>2015-06-25T13:18:55Z</time>
</trkpt>
<trkpt lat="53.3515944" lon="18.4357718">
<ele>117</ele>
<time>2015-06-25T13:18:57Z</time>
</trkpt>
<trkpt lat="53.3515943" lon="18.4357718">
<ele>117</ele>
<time>2015-06-25T13:18:59Z</time>
</trkpt>
<trkpt lat="53.3515944" lon="18.4357719">
<ele>117</ele>
<time>2015-06-25T13:19:01Z</time>
</trkpt>
<trkpt lat="53.3516119" lon="18.4357450">
<ele>116</ele>
<time>2015-06-25T13:19:03Z</time>
</trkpt>
<trkpt lat="53.3516593" lon="18.4357077">
<ele>116</ele>
<time>2015-06-25T13:19:05Z</time>
</trkpt>
<trkpt lat="53.3517086" lon="18.4356926">
<ele>118</ele>
<time>2015-06-25T13:19:07Z</time>
</trkpt>
<trkpt lat="53.3517553" lon="18.4356808">
<ele>120</ele>
<time>2015-06-25T13:19:09Z</time>
</trkpt>
<trkpt lat="53.3517945" lon="18.4356321">
<ele>122</ele>
<time>2015-06-25T13:19:11Z</time>
</trkpt>
<trkpt lat="53.3518157" lon="18.4354887">
<ele>122</ele>
<time>2015-06-25T13:19:13Z</time>
</trkpt>
<trkpt lat="53.3518186" lon="18.4352876">
<ele>120</ele>
<time>2015-06-25T13:19:15Z</time>
</trkpt>
<trkpt lat="53.3517904" lon="18.4350122">
<ele>121</ele>
<time>2015-06-25T13:19:17Z</time>
</trkpt>
<trkpt lat="53.3517287" lon="18.4346719">
<ele>122</ele>
<time>2015-06-25T13:19:19Z</time>
</trkpt>
<trkpt lat="53.3516506" lon="18.4342577">
<ele>121</ele>
<time>2015-06-25T13:19:21Z</time>
</trkpt>
<trkpt lat="53.3515559" lon="18.4340889">
<ele>119</ele>
<time>2015-06-25T13:19:23Z</time>
</trkpt>
<trkpt lat="53.3515740" lon="18.4339454">
<ele>120</ele>
<time>2015-06-25T13:19:25Z</time>
</trkpt>
<trkpt lat="53.3515525" lon="18.4338058">
<ele>119</ele>
<time>2015-06-25T13:19:27Z</time>
</trkpt>
<trkpt lat="53.3514933" lon="18.4336251">
<ele>121</ele>
<time>2015-06-25T13:19:29Z</time>
</trkpt>
<trkpt lat="53.3515351" lon="18.4334231">
<ele>114</ele>
<time>2015-06-25T13:19:31Z</time>
</trkpt>
<trkpt lat="53.3515076" lon="18.4333349">
<ele>115</ele>
<time>2015-06-25T13:19:33Z</time>
</trkpt>
<trkpt lat="53.3514493" lon="18.4332496">
<ele>116</ele>
<time>2015-06-25T13:19:35Z</time>
</trkpt>
<trkpt lat="53.3513667" lon="18.4332522">
<ele>113</ele>
<time>2015-06-25T13:19:37Z</time>
</trkpt>
<trkpt lat="53.3512506" lon="18.4332838">
<ele>111</ele>
<time>2015-06-25T13:19:39Z</time>
</trkpt>
<trkpt lat="53.3510799" lon="18.4332825">
<ele>110</ele>
<time>2015-06-25T13:19:41Z</time>
</trkpt>
<trkpt lat="53.3509068" lon="18.4334262">
<ele>110</ele>
<time>2015-06-25T13:19:43Z</time>
</trkpt>
<trkpt lat="53.3507950" lon="18.4334543">
<ele>110</ele>
<time>2015-06-25T13:19:45Z</time>
</trkpt>
<trkpt lat="53.3507365" lon="18.4334245">
<ele>111</ele>
<time>2015-06-25T13:19:47Z</time>
</trkpt>
<trkpt lat="53.3507572" lon="18.4334370">
<ele>111</ele>
<time>2015-06-25T13:19:49Z</time>
</trkpt>
<trkpt lat="53.3507457" lon="18.4334930">
<ele>109</ele>
<time>2015-06-25T13:19:51Z</time>
</trkpt>
<trkpt lat="53.3506861" lon="18.4336126">
<ele>107</ele>
<time>2015-06-25T13:19:53Z</time>
</trkpt>
<trkpt lat="53.3506372" lon="18.4337722">
<ele>108</ele>
<time>2015-06-25T13:19:55Z</time>
</trkpt>
<trkpt lat="53.3506879" lon="18.4340610">
<ele>106</ele>
<time>2015-06-25T13:19:57Z</time>
</trkpt>
<trkpt lat="53.3507586" lon="18.4344054">
<ele>104</ele>
<time>2015-06-25T13:19:59Z</time>
</trkpt>
<trkpt lat="53.3507982" lon="18.4347796">
<ele>105</ele>
<time>2015-06-25T13:20:01Z</time>
</trkpt>
<trkpt lat="53.3508803" lon="18.4351430">
<ele>102</ele>
<time>2015-06-25T13:20:03Z</time>
</trkpt>
<trkpt lat="53.3509573" lon="18.4355073">
<ele>102</ele>
<time>2015-06-25T13:20:05Z</time>
</trkpt>
<trkpt lat="53.3511067" lon="18.4358629">
<ele>100</ele>
<time>2015-06-25T13:20:07Z</time>
</trkpt>
<trkpt lat="53.3511029" lon="18.4361540">
<ele>100</ele>
<time>2015-06-25T13:20:09Z</time>
</trkpt>
<trkpt lat="53.3510539" lon="18.4364525">
<ele>100</ele>
<time>2015-06-25T13:20:11Z</time>
</trkpt>
<trkpt lat="53.3511420" lon="18.4368209">
<ele>99</ele>
<time>2015-06-25T13:20:13Z</time>
</trkpt>
<trkpt lat="53.3510836" lon="18.4371413">
<ele>99</ele>
<time>2015-06-25T13:20:15Z</time>
</trkpt>
<trkpt lat="53.3510482" lon="18.4374827">
<ele>100</ele>
<time>2015-06-25T13:20:17Z</time>
</trkpt>
<trkpt lat="53.3509836" lon="18.4378191">
<ele>100</ele>
<time>2015-06-25T13:20:19Z</time>
</trkpt>
<trkpt lat="53.3509373" lon="18.4382429">
<ele>98</ele>
<time>2015-06-25T13:20:21Z</time>
</trkpt>
<trkpt lat="53.3508673" lon="18.4386445">
<ele>95</ele>
<time>2015-06-25T13:20:23Z</time>
</trkpt>
<trkpt lat="53.3507788" lon="18.4390121">
<ele>94</ele>
<time>2015-06-25T13:20:25Z</time>
</trkpt>
<trkpt lat="53.3507105" lon="18.4393721">
<ele>95</ele>
<time>2015-06-25T13:20:27Z</time>
</trkpt>
<trkpt lat="53.3506411" lon="18.4397994">
<ele>95</ele>
<time>2015-06-25T13:20:29Z</time>
</trkpt>
<trkpt lat="53.3506014" lon="18.4401629">
<ele>94</ele>
<time>2015-06-25T13:20:31Z</time>
</trkpt>
<trkpt lat="53.3505123" lon="18.4404790">
<ele>112</ele>
<time>2015-06-25T13:20:33Z</time>
</trkpt>
<trkpt lat="53.3504895" lon="18.4411690">
<ele>104</ele>
<time>2015-06-25T13:20:35Z</time>
</trkpt>
<trkpt lat="53.3503836" lon="18.4415757">
<ele>101</ele>
<time>2015-06-25T13:20:37Z</time>
</trkpt>
<trkpt lat="53.3503253" lon="18.4420799">
<ele>97</ele>
<time>2015-06-25T13:20:39Z</time>
</trkpt>
<trkpt lat="53.3502553" lon="18.4424254">
<ele>94</ele>
<time>2015-06-25T13:20:41Z</time>
</trkpt>
<trkpt lat="53.3502058" lon="18.4426372">
<ele>97</ele>
<time>2015-06-25T13:20:43Z</time>
</trkpt>
<trkpt lat="53.3501487" lon="18.4427742">
<ele>101</ele>
<time>2015-06-25T13:20:45Z</time>
</trkpt>
<trkpt lat="53.3501096" lon="18.4429430">
<ele>102</ele>
<time>2015-06-25T13:20:47Z</time>
</trkpt>
<trkpt lat="53.3500770" lon="18.4432524">
<ele>101</ele>
<time>2015-06-25T13:20:49Z</time>
</trkpt>
<trkpt lat="53.3500125" lon="18.4436793">
<ele>100</ele>
<time>2015-06-25T13:20:51Z</time>
</trkpt>
<trkpt lat="53.3499377" lon="18.4440956">
<ele>101</ele>
<time>2015-06-25T13:20:53Z</time>
</trkpt>
<trkpt lat="53.3498787" lon="18.4446082">
<ele>98</ele>
<time>2015-06-25T13:20:55Z</time>
</trkpt>
<trkpt lat="53.3498534" lon="18.4451110">
<ele>93</ele>
<time>2015-06-25T13:20:57Z</time>
</trkpt>
<trkpt lat="53.3497322" lon="18.4454300">
<ele>94</ele>
<time>2015-06-25T13:20:59Z</time>
</trkpt>
<trkpt lat="53.3496271" lon="18.4455701">
<ele>96</ele>
<time>2015-06-25T13:21:01Z</time>
</trkpt>
<trkpt lat="53.3495397" lon="18.4456955">
<ele>95</ele>
<time>2015-06-25T13:21:03Z</time>
</trkpt>
<trkpt lat="53.3494370" lon="18.4456291">
<ele>97</ele>
<time>2015-06-25T13:21:05Z</time>
</trkpt>
<trkpt lat="53.3493468" lon="18.4454388">
<ele>98</ele>
<time>2015-06-25T13:21:07Z</time>
</trkpt>
<trkpt lat="53.3492295" lon="18.4452397">
<ele>100</ele>
<time>2015-06-25T13:21:09Z</time>
</trkpt>
<trkpt lat="53.3491097" lon="18.4450583">
<ele>100</ele>
<time>2015-06-25T13:21:11Z</time>
</trkpt>
<trkpt lat="53.3489636" lon="18.4449295">
<ele>95</ele>
<time>2015-06-25T13:21:13Z</time>
</trkpt>
<trkpt lat="53.3488385" lon="18.4448905">
<ele>93</ele>
<time>2015-06-25T13:21:15Z</time>
</trkpt>
<trkpt lat="53.3486369" lon="18.4449333">
<ele>93</ele>
<time>2015-06-25T13:21:17Z</time>
</trkpt>
<trkpt lat="53.3486607" lon="18.4449677">
<ele>95</ele>
<time>2015-06-25T13:21:19Z</time>
</trkpt>
<trkpt lat="53.3485939" lon="18.4450429">
<ele>95</ele>
<time>2015-06-25T13:21:21Z</time>
</trkpt>
<trkpt lat="53.3484194" lon="18.4453161">
<ele>95</ele>
<time>2015-06-25T13:21:25Z</time>
</trkpt>
<trkpt lat="53.3482902" lon="18.4452908">
<ele>96</ele>
<time>2015-06-25T13:21:27Z</time>
</trkpt>
<trkpt lat="53.3482116" lon="18.4453522">
<ele>95</ele>
<time>2015-06-25T13:21:29Z</time>
</trkpt>
<trkpt lat="53.3482675" lon="18.4453942">
<ele>95</ele>
<time>2015-06-25T13:21:31Z</time>
</trkpt>
<trkpt lat="53.3483178" lon="18.4454316">
<ele>96</ele>
<time>2015-06-25T13:21:33Z</time>
</trkpt>
<trkpt lat="53.3483499" lon="18.4454660">
<ele>98</ele>
<time>2015-06-25T13:21:35Z</time>
</trkpt>
<trkpt lat="53.3483259" lon="18.4455085">
<ele>99</ele>
<time>2015-06-25T13:21:37Z</time>
</trkpt>
<trkpt lat="53.3483174" lon="18.4455272">
<ele>100</ele>
<time>2015-06-25T13:21:39Z</time>
</trkpt>
<trkpt lat="53.3483119" lon="18.4455118">
<ele>101</ele>
<time>2015-06-25T13:21:41Z</time>
</trkpt>
<trkpt lat="53.3483155" lon="18.4455124">
<ele>100</ele>
<time>2015-06-25T13:21:43Z</time>
</trkpt>
<trkpt lat="53.3483190" lon="18.4455169">
<ele>100</ele>
<time>2015-06-25T13:21:45Z</time>
</trkpt>
<trkpt lat="53.3483184" lon="18.4455118">
<ele>101</ele>
<time>2015-06-25T13:21:47Z</time>
</trkpt>
<trkpt lat="53.3483190" lon="18.4455137">
<ele>100</ele>
<time>2015-06-25T13:21:49Z</time>
</trkpt>
<trkpt lat="53.3483189" lon="18.4455130">
<ele>100</ele>
<time>2015-06-25T13:21:53Z</time>
</trkpt>
<trkpt lat="53.3483189" lon="18.4455129">
<ele>100</ele>
<time>2015-06-25T13:21:55Z</time>
</trkpt>
<trkpt lat="53.3483188" lon="18.4455130">
<ele>100</ele>
<time>2015-06-25T13:21:57Z</time>
</trkpt>
<trkpt lat="53.3483188" lon="18.4455130">
<ele>100</ele>
<time>2015-06-25T13:21:59Z</time>
</trkpt>
<trkpt lat="53.3483188" lon="18.4455130">
<ele>100</ele>
<time>2015-06-25T13:22:01Z</time>
</trkpt>
<trkpt lat="53.3483188" lon="18.4455130">
<ele>100</ele>
<time>2015-06-25T13:22:03Z</time>
</trkpt>
<trkpt lat="53.3483188" lon="18.4455129">
<ele>100</ele>
<time>2015-06-25T13:22:05Z</time>
</trkpt>
<trkpt lat="53.3483188" lon="18.4455127">
<ele>100</ele>
<time>2015-06-25T13:22:07Z</time>
</trkpt>
<trkpt lat="53.3483188" lon="18.4455126">
<ele>100</ele>
<time>2015-06-25T13:22:09Z</time>
</trkpt>
<trkpt lat="53.3483188" lon="18.4455125">
<ele>100</ele>
<time>2015-06-25T13:22:11Z</time>
</trkpt>
<trkpt lat="53.3483189" lon="18.4455122">
<ele>100</ele>
<time>2015-06-25T13:22:13Z</time>
</trkpt>
<trkpt lat="53.3483190" lon="18.4455118">
<ele>100</ele>
<time>2015-06-25T13:22:15Z</time>
</trkpt>
<trkpt lat="53.3483190" lon="18.4455118">
<ele>100</ele>
<time>2015-06-25T13:22:17Z</time>
</trkpt>
<trkpt lat="53.3483190" lon="18.4455114">
<ele>100</ele>
<time>2015-06-25T13:22:19Z</time>
</trkpt>
<trkpt lat="53.3483178" lon="18.4455129">
<ele>100</ele>
<time>2015-06-25T13:22:21Z</time>
</trkpt>
<trkpt lat="53.3483173" lon="18.4455382">
<ele>99</ele>
<time>2015-06-25T13:22:23Z</time>
</trkpt>
<trkpt lat="53.3483262" lon="18.4455440">
<ele>99</ele>
<time>2015-06-25T13:22:25Z</time>
</trkpt>
<trkpt lat="53.3483306" lon="18.4455497">
<ele>100</ele>
<time>2015-06-25T13:22:27Z</time>
</trkpt>
<trkpt lat="53.3483389" lon="18.4455657">
<ele>99</ele>
<time>2015-06-25T13:22:29Z</time>
</trkpt>
<trkpt lat="53.3483342" lon="18.4455649">
<ele>97</ele>
<time>2015-06-25T13:22:31Z</time>
</trkpt>
<trkpt lat="53.3483333" lon="18.4455594">
<ele>97</ele>
<time>2015-06-25T13:22:33Z</time>
</trkpt>
<trkpt lat="53.3483276" lon="18.4455536">
<ele>97</ele>
<time>2015-06-25T13:22:35Z</time>
</trkpt>
<trkpt lat="53.3483185" lon="18.4455633">
<ele>98</ele>
<time>2015-06-25T13:22:37Z</time>
</trkpt>
<trkpt lat="53.3483149" lon="18.4455896">
<ele>99</ele>
<time>2015-06-25T13:22:39Z</time>
</trkpt>
<trkpt lat="53.3483094" lon="18.4456149">
<ele>99</ele>
<time>2015-06-25T13:22:41Z</time>
</trkpt>
<trkpt lat="53.3483032" lon="18.4456330">
<ele>98</ele>
<time>2015-06-25T13:22:43Z</time>
</trkpt>
<trkpt lat="53.3482918" lon="18.4456528">
<ele>98</ele>
<time>2015-06-25T13:22:45Z</time>
</trkpt>
<trkpt lat="53.3482773" lon="18.4456599">
<ele>99</ele>
<time>2015-06-25T13:22:47Z</time>
</trkpt>
<trkpt lat="53.3482519" lon="18.4456644">
<ele>100</ele>
<time>2015-06-25T13:22:49Z</time>
</trkpt>
<trkpt lat="53.3482259" lon="18.4456746">
<ele>100</ele>
<time>2015-06-25T13:22:51Z</time>
</trkpt>
<trkpt lat="53.3482106" lon="18.4457090">
<ele>100</ele>
<time>2015-06-25T13:22:53Z</time>
</trkpt>
<trkpt lat="53.3482057" lon="18.4457419">
<ele>103</ele>
<time>2015-06-25T13:22:55Z</time>
</trkpt>
<trkpt lat="53.3482101" lon="18.4457680">
<ele>105</ele>
<time>2015-06-25T13:22:57Z</time>
</trkpt>
<trkpt lat="53.3482089" lon="18.4457945">
<ele>106</ele>
<time>2015-06-25T13:22:59Z</time>
</trkpt>
<trkpt lat="" lon="">
<ele></ele>
<time>2015-06-25TZ</time>
</trkpt>
</trkseg>
</trk>
<wpt lat="" lon="">
	<name></name>
	<desc></desc>
	<cmt></cmt>
	<photoid></photoid>
	<type></type>
</wpt>
</gpx>
